KASH/ASH METAR and TAF weather

Enter ICAO airport designator
Station Type Date Time Source
KASH METAR 2021/06/24 06:56 UTC NOAA

KASH 240656Z AUTO 00000KT 10SM CLR 10/10 A3034 RMK AO2 SLP279 T01000100 PNO $


Station Type Date Time Source
KASH Decoded METAR 2021/06/24 06:56 UTC NOAA

Nashua, Boire Field Airport, NH, United States (KASH) 42-46-54N 071-30-53W
Jun 24, 2021 - 02:56 AM EDT / 2021.06.24 0656 UTC
Wind: Calm:0
Visibility: 10 mile(s):0
Sky conditions: clear
Temperature: 50.0 F (10.0 C)
Dew Point: 50.0 F (10.0 C)
Relative Humidity: 100%
Pressure (altimeter): 30.34 in. Hg (1027 hPa)
ob: KASH 240656Z AUTO 00000KT 10SM CLR 10/10 A3034 RMK AO2 SLP279 T01000100 PNO
cycle: 7

Station Type Date Time Source
KASH TAF UTC NOAA

Error!

Example: see airport list